Time;durP1;ratioP1;P1;durP2;ratioP2;P2;SDS_P1;SDS_P2;PMS_P1;PMS_P2;Temp;Humidity;BMP_temperature;BMP_pressure;BME280_temperature;BME280_humidity;BME280_pressure;Samples;Min_cycle;Max_cycle;Signal;HPM_P1;HPM_P2
2022/11/20 00:01:56;;;;;;;18.08;5.28;;;;;;;-0.12;100.00;100866.16;7389068;19;20203;-57
2022/11/20 00:04:26;;;;;;;14.15;6.07;;;;;;;-0.12;100.00;100866.16;7391949;19;20164;-58
2022/11/20 00:06:55;;;;;;;9.73;5.18;;;;;;;-0.11;100.00;100857.78;7388526;19;20190;-56
2022/11/20 00:09:25;;;;;;;19.33;7.90;;;;;;;-0.11;100.00;100858.66;7390749;19;20530;-53
2022/11/20 00:11:54;;;;;;;30.52;9.52;;;;;;;-0.09;100.00;100853.72;7386382;19;20236;-55
2022/11/20 00:14:24;;;;;;;15.77;7.03;;;;;;;-0.06;100.00;100864.16;7391651;19;20135;-57
2022/11/20 00:16:56;;;;;;;10.48;4.18;;;;;;;-0.15;100.00;100861.72;7386475;19;20568;-59
2022/11/20 00:19:25;;;;;;;7.90;3.92;;;;;;;-0.17;100.00;100858.13;7391055;19;20147;-60
2022/11/20 00:21:55;;;;;;;8.55;4.82;;;;;;;-0.22;100.00;100857.75;7381611;19;20222;-54
2022/11/20 00:24:24;;;;;;;11.10;4.78;;;;;;;-0.18;100.00;100852.19;7390294;19;20136;-60
2022/11/20 00:26:54;;;;;;;10.27;3.92;;;;;;;-0.15;100.00;100847.38;7386491;19;20190;-58
2022/11/20 00:29:23;;;;;;;11.98;5.45;;;;;;;0.01;100.00;100842.72;7390437;19;20629;-58
2022/11/20 00:31:55;;;;;;;13.07;6.10;;;;;;;-0.06;100.00;100841.31;7387937;19;20201;-57
2022/11/20 00:34:25;;;;;;;7.63;4.65;;;;;;;-0.06;100.00;100846.41;7390822;19;20134;-54
2022/11/20 00:36:54;;;;;;;7.90;4.30;;;;;;;-0.20;100.00;100843.53;7386448;19;20226;-59
2022/11/20 00:39:23;;;;;;;8.57;4.25;;;;;;;-0.17;100.00;100846.34;7390120;19;20147;-58
2022/11/20 00:41:53;;;;;;;6.97;4.20;;;;;;;-0.08;100.00;100835.22;7388632;19;20206;-57
2022/11/20 00:44:22;;;;;;;10.90;4.55;;;;;;;-0.10;100.00;100839.28;7391099;19;20131;-60
2022/11/20 00:46:52;;;;;;;8.52;4.50;;;;;;;-0.05;100.00;100832.97;7388625;19;20190;-56
2022/11/20 00:49:24;;;;;;;14.77;6.90;;;;;;;0.04;100.00;100825.25;7390700;19;20142;-56
2022/11/20 00:51:53;;;;;;;8.27;4.35;;;;;;;0.00;100.00;100826.63;7384428;19;20217;-59
2022/11/20 00:54:23;;;;;;;7.63;4.22;;;;;;;0.04;100.00;100827.78;7390432;19;20505;-58
2022/11/20 00:56:52;;;;;;;25.67;12.35;;;;;;;0.00;100.00;100826.63;7387111;19;20295;-61
2022/11/20 00:59:21;;;;;;;11.98;5.50;;;;;;;0.03;100.00;100824.34;7390501;19;20130;-60
2022/11/20 01:01:51;;;;;;;8.90;4.63;;;;;;;-0.09;100.00;100825.81;7390060;19;20205;-60
2022/11/20 01:04:23;;;;;;;73.43;25.40;;;;;;;-0.03;100.00;100821.28;7390605;19;20134;-66
2022/11/20 01:06:53;;;;;;;51.90;19.60;;;;;;;0.09;100.00;100812.19;7388274;19;20415;-57
2022/11/20 01:09:22;;;;;;;18.63;9.33;;;;;;;0.09;100.00;100816.34;7389535;19;20147;-61
2022/11/20 01:11:52;;;;;;;81.10;28.20;;;;;;;0.05;100.00;100812.66;7386552;19;20973;-61
2022/11/20 01:14:22;;;;;;;20.45;8.95;;;;;;;-0.05;100.00;100812.66;7394459;19;20436;-57
2022/11/20 01:16:53;;;;;;;7.50;3.95;;;;;;;-0.08;100.00;100807.31;7390927;19;20538;-60
2022/11/20 01:19:27;;;;;;;10.30;5.47;;;;;;;-0.04;100.00;100801.75;7394123;19;20130;-59
2022/11/20 01:21:57;;;;;;;6.63;4.15;;;;;;;-0.18;100.00;100801.47;7385481;19;20438;-59
2022/11/20 01:24:26;;;;;;;10.80;4.72;;;;;;;-0.05;100.00;100800.84;7394376;19;20511;-60
2022/11/20 01:26:56;;;;;;;37.23;15.40;;;;;;;0.03;100.00;100791.34;7390706;19;20194;-57
2022/11/20 01:29:27;;;;;;;45.20;17.35;;;;;;;0.00;100.00;100780.97;7393184;19;20390;-58
2022/11/20 01:31:56;;;;;;;12.73;4.63;;;;;;;0.01;100.00;100782.75;7390184;19;20198;-56
2022/11/20 01:34:28;;;;;;;9.80;5.15;;;;;;;-0.01;100.00;100769.00;7393148;19;20137;-57
2022/11/20 01:36:58;;;;;;;38.50;14.57;;;;;;;-0.09;100.00;100770.03;7393238;19;20963;-58
2022/11/20 01:39:28;;;;;;;16.50;7.53;;;;;;;0.04;100.00;100761.81;7400458;19;20131;-55
2022/11/20 01:44:58;;;;;;;13.27;5.38;;;;;;;-0.22;100.00;100753.75;7396552;19;20232;-54
2022/11/20 01:47:34;;;;;;;8.68;4.20;;;;;;;-0.27;100.00;100744.88;7392165;19;20193;-56
2022/11/20 01:50:09;;;;;;;6.90;3.50;;;;;;;-0.29;100.00;100732.03;7400508;19;20143;-58
2022/11/20 01:52:41;;;;;;;8.55;4.57;;;;;;;-0.35;100.00;100730.66;7396978;19;20209;-56
2022/11/20 01:55:13;;;;;;;6.90;4.20;;;;;;;-0.31;100.00;100727.63;7400615;19;20127;-56
2022/11/20 01:57:43;;;;;;;8.10;4.40;;;;;;;-0.31;100.00;100720.91;7393772;19;20189;-60
2022/11/20 02:00:16;;;;;;;9.40;4.93;;;;;;;-0.30;100.00;100716.72;7400010;19;20129;-52
2022/11/20 02:02:47;;;;;;;9.68;5.18;;;;;;;-0.38;100.00;100716.06;7396805;19;20198;-58
2022/11/20 02:05:24;;;;;;;6.60;4.00;;;;;;;-0.35;100.00;100707.84;7399847;19;20594;-55
2022/11/20 02:07:53;;;;;;;9.65;4.60;;;;;;;-0.34;100.00;100702.91;7394031;19;20189;-55
2022/11/20 02:10:23;;;;;;;11.07;5.38;;;;;;;-0.25;100.00;100706.97;7395600;19;20123;-56
2022/11/20 02:15:36;;;;;;;8.57;4.33;;;;;;;-0.33;100.00;100698.69;7393795;19;20143;-55
2022/11/20 02:18:06;;;;;;;6.90;4.00;;;;;;;-0.33;100.00;100699.59;7387253;19;20836;-56
2022/11/20 02:20:38;;;;;;;11.93;4.80;;;;;;;-0.40;100.00;100697.31;7398518;19;20131;-54
2022/11/20 02:23:12;;;;;;;11.98;6.22;;;;;;;-0.31;100.00;100692.13;7384724;19;20925;-58
2022/11/20 02:25:45;;;;;;;8.35;4.50;;;;;;;-0.31;100.00;100697.19;7396818;19;20501;-60
2022/11/20 02:28:14;;;;;;;11.48;5.30;;;;;;;-0.32;100.00;100691.22;7392386;19;20190;-56
2022/11/20 02:30:43;;;;;;;8.70;4.85;;;;;;;-0.27;100.00;100689.06;7395383;19;20153;-59
2022/11/20 02:33:13;;;;;;;8.50;4.25;;;;;;;-0.29;100.00;100686.41;7392584;19;20190;-56
2022/11/20 02:35:45;;;;;;;8.20;4.80;;;;;;;-0.30;100.00;100678.69;7398842;19;20150;-59
2022/11/20 02:38:15;;;;;;;12.60;4.57;;;;;;;-0.27;100.00;100678.94;7390472;19;20697;-60
2022/11/20 02:40:47;;;;;;;9.00;4.50;;;;;;;-0.04;100.00;100677.44;7395313;19;20131;-61
2022/11/20 02:43:23;;;;;;;9.80;5.60;;;;;;;-0.21;100.00;100676.91;7391853;19;20738;-58
2022/11/20 02:45:53;;;;;;;11.30;5.15;;;;;;;-0.30;100.00;100676.16;7394776;19;20928;-60
2022/11/20 02:48:22;;;;;;;10.27;4.30;;;;;;;-0.38;100.00;100680.56;7389846;19;20221;-59
2022/11/20 02:50:53;;;;;;;10.10;5.03;;;;;;;-0.38;100.00;100674.59;7395002;19;20137;-53
2022/11/20 02:53:23;;;;;;;11.35;4.45;;;;;;;-0.30;100.00;100674.47;7388464;19;20205;-56
2022/11/20 02:55:55;;;;;;;8.75;4.50;;;;;;;-0.30;100.00;100676.16;7394726;19;20154;-57
2022/11/20 02:58:24;;;;;;;6.22;3.75;;;;;;;-0.33;100.00;100675.88;7389467;19;20191;-55
2022/11/20 03:00:54;;;;;;;12.80;5.35;;;;;;;-0.35;100.00;100679.94;7394770;19;20144;-58
2022/11/20 03:03:24;;;;;;;6.30;4.40;;;;;;;-0.38;100.00;100677.13;7391884;19;20213;-56
2022/11/20 03:05:53;;;;;;;8.85;4.88;;;;;;;-0.34;100.00;100679.19;7394278;19;20135;-57
2022/11/20 03:08:23;;;;;;;9.85;4.20;;;;;;;-0.37;100.00;100684.88;7392323;19;20265;-55
2022/11/20 03:10:55;;;;;;;7.20;4.40;;;;;;;-0.44;100.00;100682.59;7393725;19;20139;-58
2022/11/20 03:13:24;;;;;;;9.43;4.95;;;;;;;-0.30;100.00;100674.47;7391479;19;20221;-59
2022/11/20 03:15:54;;;;;;;7.50;4.00;;;;;;;-0.18;100.00;100679.72;7393816;19;20541;-60
2022/11/20 03:18:23;;;;;;;12.63;4.28;;;;;;;-0.12;100.00;100678.47;7389572;19;20218;-60
2022/11/20 03:20:59;;;;;;;11.30;6.07;;;;;;;-0.15;100.00;100682.50;7393483;19;20123;-59
2022/11/20 03:23:28;;;;;;;6.95;4.68;;;;;;;-0.19;100.00;100689.72;7386220;19;20194;-56
2022/11/20 03:26:10;;;;;;;8.63;4.63;;;;;;;-0.23;100.00;100690.22;7393665;19;20154;-60
2022/11/20 03:28:39;;;;;;;10.90;4.73;;;;;;;-0.33;100.00;100693.63;7392651;19;20419;-58
2022/11/20 03:31:14;;;;;;;11.20;4.30;;;;;;;-0.46;100.00;100689.19;7393783;19;20384;-56
2022/11/20 03:33:46;;;;;;;7.25;3.97;;;;;;;-0.34;100.00;100684.25;7392336;19;20796;-60
2022/11/20 03:36:17;;;;;;;7.17;4.57;;;;;;;-0.30;100.00;100684.63;7393219;19;20155;-56
2022/11/20 03:38:47;;;;;;;5.90;3.97;;;;;;;-0.29;100.00;100686.41;7390516;19;20404;-57
2022/11/20 03:41:20;;;;;;;7.38;4.57;;;;;;;-0.34;100.00;100682.63;7395324;19;20525;-57
2022/11/20 03:43:50;;;;;;;10.65;4.75;;;;;;;-0.38;100.00;100684.75;7392687;19;20146;-58
2022/11/20 03:46:20;;;;;;;8.00;4.15;;;;;;;-0.32;100.00;100685.25;7390750;19;20131;-56
2022/11/20 03:48:50;;;;;;;9.55;4.80;;;;;;;-0.42;100.00;100686.13;7391566;19;20126;-54
2022/11/20 03:51:21;;;;;;;12.13;4.00;;;;;;;-0.44;100.00;100680.94;7390296;19;20131;-56
2022/11/20 03:53:52;;;;;;;8.20;4.45;;;;;;;-0.20;100.00;100678.69;7392605;19;20131;-59
2022/11/20 03:56:26;;;;;;;8.00;4.93;;;;;;;-0.20;100.00;100680.34;7390247;19;20127;-57
2022/11/20 03:58:56;;;;;;;7.95;4.13;;;;;;;-0.28;100.00;100677.16;7390295;19;20151;-58
2022/11/20 04:01:27;;;;;;;8.15;4.55;;;;;;;-0.30;100.00;100671.09;7389998;19;20148;-58
2022/11/20 04:03:58;;;;;;;8.02;4.15;;;;;;;-0.34;100.00;100676.63;7392519;19;20150;-59
2022/11/20 04:06:29;;;;;;;6.38;3.90;;;;;;;-0.34;100.00;100676.63;7390918;19;20143;-57
2022/11/20 04:08:59;;;;;;;6.47;4.05;;;;;;;-0.32;100.00;100691.22;7391648;19;20471;-61
2022/11/20 04:11:32;;;;;;;9.05;4.05;;;;;;;-0.38;100.00;100694.88;7390487;19;20143;-61
2022/11/20 04:14:03;;;;;;;6.22;3.95;;;;;;;-0.36;100.00;100683.25;7392050;19;20503;-60
2022/11/20 04:16:34;;;;;;;8.45;4.20;;;;;;;-0.29;100.00;100683.00;7390347;19;20190;-59
2022/11/20 04:19:06;;;;;;;8.07;4.68;;;;;;;-0.26;100.00;100685.78;7390185;19;20127;-61
2022/11/20 04:21:36;;;;;;;6.80;4.10;;;;;;;-0.25;100.00;100684.13;7388499;19;20221;-59
2022/11/20 04:24:06;;;;;;;8.63;4.60;;;;;;;-0.26;100.00;100682.38;7391936;19;20138;-60
2022/11/20 04:26:38;;;;;;;8.40;4.00;;;;;;;-0.27;100.00;100684.00;7388980;19;20217;-60
2022/11/20 04:29:08;;;;;;;9.18;4.00;;;;;;;-0.31;100.00;100679.44;7391141;19;20131;-59
2022/11/20 04:31:37;;;;;;;12.55;4.63;;;;;;;-0.29;100.00;100675.38;7388929;19;20198;-59
2022/11/20 04:34:08;;;;;;;12.23;5.78;;;;;;;-0.34;100.00;100674.09;7391506;19;20135;-59
2022/11/20 04:36:38;;;;;;;13.85;5.90;;;;;;;-0.36;100.00;100680.72;7389055;19;20198;-59
2022/11/20 04:39:08;;;;;;;9.27;3.78;;;;;;;-0.38;100.00;100682.19;7389510;19;20625;-60
2022/11/20 04:41:41;;;;;;;9.73;4.78;;;;;;;-0.30;100.00;100673.63;7387915;19;20662;-60
2022/11/20 04:44:10;;;;;;;12.27;5.95;;;;;;;-0.14;100.00;100669.03;7391514;19;20512;-61
2022/11/20 04:46:41;;;;;;;6.63;3.95;;;;;;;-0.35;100.00;100680.84;7388661;19;20198;-60
2022/11/20 04:49:11;;;;;;;9.50;3.70;;;;;;;-0.36;100.00;100673.09;7390785;19;20147;-60
2022/11/20 04:51:41;;;;;;;9.88;4.32;;;;;;;-0.48;100.00;100668.75;7386580;19;20568;-61
2022/11/20 04:54:11;;;;;;;54.10;20.83;;;;;;;-0.31;100.00;100671.84;7391616;19;20170;-59
2022/11/20 04:56:42;;;;;;;39.13;18.70;;;;;;;-0.17;100.00;100672.97;7388401;19;20206;-53
2022/11/20 04:59:13;;;;;;;11.25;5.57;;;;;;;-0.17;100.00;100673.88;7389602;19;20491;-61
2022/11/20 05:01:42;;;;;;;15.55;7.22;;;;;;;-0.16;100.00;100673.13;7387852;19;20198;-59
2022/11/20 05:04:12;;;;;;;12.70;5.57;;;;;;;-0.18;100.00;100664.50;7390705;19;20158;-60
2022/11/20 05:06:41;;;;;;;7.47;4.47;;;;;;;-0.22;100.00;100657.38;7386149;19;20198;-60
2022/11/20 05:09:11;;;;;;;8.43;4.40;;;;;;;-0.34;100.00;100661.44;7389958;19;20134;-58
2022/11/20 05:11:43;;;;;;;7.32;4.22;;;;;;;-0.43;100.00;100661.53;7390978;19;20201;-60
2022/11/20 05:14:18;;;;;;;9.50;4.10;;;;;;;-0.48;100.00;100653.56;7397874;19;20135;-54
2022/11/20 05:16:48;;;;;;;7.65;4.30;;;;;;;-0.35;100.00;100652.94;7395549;19;20194;-59
2022/11/20 05:19:17;;;;;;;8.90;4.35;;;;;;;-0.19;100.00;100646.59;7395844;19;20123;-58
2022/11/20 05:21:48;;;;;;;8.88;4.32;;;;;;;-0.24;100.00;100642.78;7394770;19;20193;-59
2022/11/20 05:24:17;;;;;;;6.80;3.97;;;;;;;-0.33;100.00;100642.91;7397860;19;20515;-57
2022/11/20 05:26:49;;;;;;;5.90;3.80;;;;;;;-0.41;100.00;100645.69;7394920;19;20995;-59
2022/11/20 05:29:18;;;;;;;10.70;4.70;;;;;;;-0.47;100.00;100645.19;7397076;19;20123;-58
2022/11/20 05:31:48;;;;;;;7.00;4.00;;;;;;;-0.46;100.00;100639.34;7394755;19;20194;-57
2022/11/20 05:34:18;;;;;;;8.75;3.85;;;;;;;-0.29;100.00;100647.50;7397614;19;20594;-58
2022/11/20 05:36:47;;;;;;;8.70;4.32;;;;;;;-0.46;100.00;100646.94;7398121;19;20206;-59
2022/11/20 05:39:17;;;;;;;8.45;4.43;;;;;;;-0.52;100.00;100643.03;7395069;19;20133;-60
2022/11/20 05:42:29;;;;;;;6.13;4.38;;;;;;;-0.51;100.00;100638.06;7393751;19;20209;-58
2022/11/20 05:44:38;;;;;;;8.48;4.80;;;;;;;-0.41;100.00;100642.28;7400119;19;20135;-60
2022/11/20 05:47:08;;;;;;;8.18;4.38;;;;;;;-0.47;100.00;100635.03;7394606;19;20194;-60
2022/11/20 05:49:37;;;;;;;7.15;3.80;;;;;;;-0.56;100.00;100630.09;7396410;19;20130;-60
2022/11/20 05:52:07;;;;;;;8.32;4.20;;;;;;;-0.47;100.00;100635.03;7390861;19;20272;-59
2022/11/20 05:54:36;;;;;;;7.72;4.00;;;;;;;-0.65;100.00;100628.41;7398968;19;20139;-61
2022/11/20 05:57:08;;;;;;;8.82;3.92;;;;;;;-0.68;100.00;100629.94;7394388;19;20548;-58
2022/11/20 05:59:38;;;;;;;9.05;4.32;;;;;;;-0.52;100.00;100626.16;7394314;19;20159;-53
2022/11/20 06:02:07;;;;;;;15.13;6.60;;;;;;;-0.32;100.00;100629.47;7393138;19;20619;-55
2022/11/20 06:04:37;;;;;;;12.23;4.75;;;;;;;-0.36;100.00;100622.38;7396279;19;20127;-58
2022/11/20 06:07:07;;;;;;;8.95;4.20;;;;;;;-0.31;100.00;100628.75;7394269;19;20198;-58
2022/11/20 06:09:37;;;;;;;8.73;4.20;;;;;;;-0.32;100.00;100632.00;7395562;19;20605;-61
2022/11/20 06:12:09;;;;;;;8.00;3.45;;;;;;;-0.21;100.00;100638.88;7392602;19;20229;-55
2022/11/20 06:14:39;;;;;;;10.05;5.72;;;;;;;0.15;100.00;100629.06;7396009;19;20150;-60
2022/11/20 06:17:08;;;;;;;36.63;15.45;;;;;;;0.67;100.00;100623.91;7394118;19;20660;-60
2022/11/20 06:19:37;;;;;;;69.78;29.20;;;;;;;1.91;100.00;100624.84;7394119;19;20134;-58
2022/11/20 06:22:07;;;;;;;9.15;4.90;;;;;;;1.41;100.00;100627.84;7391855;19;20222;-61
2022/11/20 06:24:36;;;;;;;16.80;8.13;;;;;;;0.76;100.00;100636.41;7394221;19;20134;-58
2022/11/20 06:27:08;;;;;;;18.30;7.57;;;;;;;0.34;100.00;100654.31;7393289;19;20194;-55
2022/11/20 06:29:38;;;;;;;13.13;4.97;;;;;;;0.02;100.00;100662.72;7395057;19;20933;-55
2022/11/20 06:32:07;;;;;;;14.57;6.95;;;;;;;-0.14;100.00;100666.50;7392662;19;20857;-60
2022/11/20 06:34:37;;;;;;;12.13;5.20;;;;;;;-0.18;100.00;100664.50;7395546;19;20739;-59
2022/11/20 06:37:06;;;;;;;8.07;4.53;;;;;;;-0.28;100.00;100667.00;7393341;19;20704;-56
2022/11/20 06:39:35;;;;;;;12.00;6.03;;;;;;;0.11;100.00;100668.53;7393253;19;20160;-58
2022/11/20 06:42:05;;;;;;;8.40;5.25;;;;;;;1.03;100.00;100662.25;7392074;19;20196;-59
2022/11/20 06:44:37;;;;;;;10.95;5.05;;;;;;;1.06;100.00;100662.47;7394922;19;20760;-59
2022/11/20 06:47:07;;;;;;;7.50;4.10;;;;;;;1.45;100.00;100662.94;7392662;19;20190;-58
2022/11/20 06:49:38;;;;;;;10.05;4.65;;;;;;;1.93;100.00;100674.19;7395030;19;20392;-54
2022/11/20 06:52:07;;;;;;;6.83;4.00;;;;;;;0.89;100.00;100690.00;7391649;19;20205;-59
2022/11/20 06:54:37;;;;;;;7.83;3.90;;;;;;;0.80;100.00;100694.34;7394814;19;20772;-58
2022/11/20 06:57:06;;;;;;;8.07;4.37;;;;;;;0.32;100.00;100709.16;7392253;19;20450;-59
2022/11/20 06:59:38;;;;;;;8.83;4.23;;;;;;;0.17;100.00;100703.72;7392963;19;20371;-60
2022/11/20 07:02:07;;;;;;;8.17;3.90;;;;;;;0.18;100.00;100707.13;7391243;19;20958;-59
2022/11/20 07:04:37;;;;;;;7.47;3.90;;;;;;;0.06;100.00;100702.78;7394596;19;20380;-57
2022/11/20 07:07:07;;;;;;;6.47;3.83;;;;;;;-0.09;100.00;100701.53;7393595;19;20593;-60
2022/11/20 07:09:36;;;;;;;5.22;3.45;;;;;;;-0.14;100.00;100696.94;7393489;19;20808;-57
2022/11/20 07:12:06;;;;;;;8.20;4.22;;;;;;;-0.10;100.00;100694.69;7390382;19;20213;-57
2022/11/20 07:14:38;;;;;;;6.45;4.05;;;;;;;-0.12;100.00;100698.75;7394251;19;20147;-57
2022/11/20 07:17:07;;;;;;;6.80;4.60;;;;;;;-0.02;100.00;100703.81;7391961;19;20531;-57
2022/11/20 07:19:37;;;;;;;8.40;4.22;;;;;;;0.03;100.00;100699.13;7392658;19;20131;-55
2022/11/20 07:22:06;;;;;;;8.38;4.75;;;;;;;0.00;100.00;100694.69;7390296;19;20235;-59
2022/11/20 07:24:36;;;;;;;9.30;4.28;;;;;;;-0.06;100.00;100690.00;7393339;19;20501;-55
2022/11/20 07:27:11;;;;;;;8.20;4.35;;;;;;;0.04;100.00;100688.22;7391087;19;20189;-54
2022/11/20 07:29:43;;;;;;;13.15;5.47;;;;;;;-0.04;100.00;100682.50;7392821;19;20138;-58
2022/11/20 07:32:12;;;;;;;8.75;4.13;;;;;;;-0.25;100.00;100679.97;7390962;19;20198;-58
2022/11/20 07:34:42;;;;;;;9.18;4.55;;;;;;;-0.31;100.00;100682.00;7392170;19;20139;-60
2022/11/20 07:37:12;;;;;;;9.82;5.30;;;;;;;-0.20;100.00;100686.28;7391158;19;20194;-58
2022/11/20 07:39:42;;;;;;;5.90;4.07;;;;;;;-0.37;100.00;100681.47;7391650;19;20507;-58
2022/11/20 07:42:12;;;;;;;10.23;4.63;;;;;;;-0.36;100.00;100678.16;7389587;19;20223;-57
2022/11/20 07:44:43;;;;;;;7.97;4.53;;;;;;;-0.41;100.00;100678.66;7394494;19;20150;-57
2022/11/20 07:47:13;;;;;;;9.57;4.97;;;;;;;-0.25;100.00;100672.34;7392036;19;20186;-55
2022/11/20 07:49:42;;;;;;;8.25;4.90;;;;;;;-0.30;100.00;100673.63;7393665;19;20131;-55
2022/11/20 07:52:12;;;;;;;8.88;4.60;;;;;;;-0.19;100.00;100672.88;7388986;19;20198;-58
2022/11/20 07:54:41;;;;;;;8.07;4.57;;;;;;;-0.17;100.00;100670.44;7392761;19;20142;-57
2022/11/20 07:57:10;;;;;;;10.60;4.60;;;;;;;-0.12;100.00;100678.47;7389095;19;20201;-58
2022/11/20 07:59:40;;;;;;;8.85;5.00;;;;;;;-0.16;100.00;100667.13;7391694;19;20131;-55
2022/11/20 08:02:14;;;;;;;8.90;4.95;;;;;;;-0.17;100.00;100668.81;7388782;19;20214;-60
2022/11/20 08:04:44;;;;;;;15.10;4.68;;;;;;;-0.25;100.00;100672.34;7392283;19;20155;-60
2022/11/20 08:07:13;;;;;;;6.72;3.97;;;;;;;-0.27;100.00;100668.78;7390097;19;20190;-55
2022/11/20 08:09:43;;;;;;;8.00;4.32;;;;;;;-0.24;100.00;100664.00;7391547;19;20135;-60
2022/11/20 08:15:04;;;;;;;9.52;4.88;;;;;;;-0.05;100.00;100655.38;7391047;19;20227;-59
2022/11/20 08:17:44;;;;;;;7.78;4.65;;;;;;;-0.18;100.00;100653.44;7389295;19;20210;-59
2022/11/20 08:20:33;;;;;;;8.50;4.47;;;;;;;-0.22;100.00;100662.47;7391764;19;20692;-58
2022/11/20 08:23:03;;;;;;;9.13;4.65;;;;;;;-0.17;100.00;100661.19;7386098;19;20207;-55
2022/11/20 08:25:33;;;;;;;8.85;4.50;;;;;;;-0.25;100.00;100663.84;7392023;19;20127;-56
2022/11/20 08:28:03;;;;;;;8.63;4.95;;;;;;;-0.19;100.00;100671.97;7388857;19;20209;-60
2022/11/20 08:30:46;;;;;;;7.82;4.88;;;;;;;-0.22;100.00;100662.47;7391274;19;20728;-57
2022/11/20 08:33:19;;;;;;;10.32;4.65;;;;;;;-0.29;100.00;100660.16;7387930;19;20201;-56
2022/11/20 08:35:48;;;;;;;9.02;4.82;;;;;;;-0.22;100.00;100654.84;7391314;19;20143;-55
2022/11/20 08:38:18;;;;;;;8.57;5.28;;;;;;;-0.29;100.00;100655.97;7388323;19;20194;-55
2022/11/20 08:41:23;;;;;;;7.78;5.00;;;;;;;-0.30;100.00;100653.34;7390388;19;20131;-62
2022/11/20 08:43:37;;;;;;;9.50;5.60;;;;;;;-0.32;100.00;100649.75;7388154;19;20194;-54
2022/11/20 08:46:06;;;;;;;9.32;5.13;;;;;;;-0.32;100.00;100649.75;7389325;19;20158;-55
2022/11/20 08:48:39;;;;;;;8.20;4.63;;;;;;;-0.29;100.00;100644.97;7387476;19;20192;-53
2022/11/20 08:51:08;;;;;;;13.50;5.50;;;;;;;-0.30;100.00;100638.13;7391498;19;20135;-57
2022/11/20 08:53:38;;;;;;;9.02;5.90;;;;;;;-0.44;100.00;100636.94;7388493;19;20190;-56
2022/11/20 08:56:09;;;;;;;11.23;5.53;;;;;;;-0.45;100.00;100627.56;7390501;19;20139;-59
2022/11/20 08:58:39;;;;;;;11.20;5.65;;;;;;;-0.36;100.00;100630.00;7389897;19;20182;-58
2022/11/20 09:01:29;;;;;;;8.30;5.13;;;;;;;-0.51;100.00;100616.91;7388731;19;20145;-59
2022/11/20 09:04:01;;;;;;;9.10;5.35;;;;;;;-0.35;100.00;100617.44;7391169;19;20612;-59
2022/11/20 09:06:30;;;;;;;10.10;4.90;;;;;;;-0.37;100.00;100613.88;7389040;19;20165;-56
2022/11/20 09:09:00;;;;;;;14.52;6.03;;;;;;;-0.21;100.00;100615.16;7390196;19;20130;-60
2022/11/20 09:11:35;;;;;;;9.52;5.50;;;;;;;-0.18;100.00;100611.25;7387246;19;20217;-54
2022/11/20 09:14:05;;;;;;;11.02;5.80;;;;;;;-0.22;100.00;100621.88;7391046;19;20237;-59
2022/11/20 09:16:34;;;;;;;8.43;5.45;;;;;;;-0.05;100.00;100619.84;7387943;19;20226;-55
2022/11/20 09:19:06;;;;;;;10.27;6.30;;;;;;;-0.06;100.00;100621.50;7389810;19;20187;-55
2022/11/20 09:21:56;;;;;;;9.00;5.27;;;;;;;-0.09;100.00;100623.78;7385309;19;20203;-57
2022/11/20 09:24:28;;;;;;;8.00;5.30;;;;;;;-0.06;100.00;100626.56;7390067;19;20388;-60
2022/11/20 09:26:57;;;;;;;6.82;4.95;;;;;;;0.19;100.00;100618.44;7386904;19;20409;-59
2022/11/20 09:29:27;;;;;;;8.20;4.85;;;;;;;0.17;100.00;100619.97;7389654;19;20224;-58
2022/11/20 09:31:56;;;;;;;12.07;4.90;;;;;;;0.40;100.00;100616.75;7387640;19;20222;-57
2022/11/20 09:34:28;;;;;;;9.00;5.13;;;;;;;0.40;100.00;100621.81;7394862;19;20921;-60
2022/11/20 09:36:58;;;;;;;12.63;6.43;;;;;;;0.98;100.00;100610.19;7390857;19;20435;-60
2022/11/20 09:39:32;;;;;;;19.30;10.40;;;;;;;1.26;100.00;100604.69;7390403;19;20928;-59
2022/11/20 09:42:17;;;;;;;13.80;7.33;;;;;;;1.88;100.00;100596.59;7384933;19;20956;-57
2022/11/20 09:44:58;;;;;;;41.57;19.67;;;;;;;2.21;100.00;100604.94;7389576;19;20371;-56
2022/11/20 09:47:37;;;;;;;23.17;10.93;;;;;;;2.11;100.00;100617.78;7387004;19;20378;-53
2022/11/20 09:50:21;;;;;;;18.43;10.00;;;;;;;2.60;100.00;100619.59;7389833;19;20390;-60
2022/11/20 09:52:58;;;;;;;15.23;8.17;;;;;;;2.24;100.00;100638.28;7387771;19;20442;-57
2022/11/20 09:55:28;;;;;;;8.17;5.50;;;;;;;2.29;100.00;100648.78;7388708;19;20420;-57
2022/11/20 09:57:58;;;;;;;7.83;4.10;;;;;;;1.35;100.00;100681.69;7389977;19;20419;-57
2022/11/20 10:00:27;;;;;;;4.53;3.37;;;;;;;1.22;100.00;100669.66;7396118;19;20392;-57
2022/11/20 10:03:01;;;;;;;5.10;3.47;;;;;;;1.08;100.00;100673.69;7391358;19;20423;-59
2022/11/20 10:05:38;;;;;;;8.17;4.30;;;;;;;0.93;100.00;100679.31;7398223;19;20382;-60
2022/11/20 10:08:15;;;;;;;6.10;3.73;;;;;;;0.88;100.00;100672.09;7392905;19;20409;-58
2022/11/20 10:10:47;;;;;;;7.77;4.37;;;;;;;0.75;100.00;100680.38;7395673;19;20766;-57
2022/11/20 10:13:32;;;;;;;8.03;4.13;;;;;;;0.57;100.00;100679.78;7390984;19;20444;-58
2022/11/20 10:16:14;;;;;;;5.68;3.60;;;;;;;0.70;100.00;100682.56;7395773;19;20395;-60
2022/11/20 10:18:54;;;;;;;16.27;8.00;;;;;;;0.72;100.00;100688.63;7394251;19;20557;-55
2022/11/20 10:21:35;;;;;;;5.90;3.93;;;;;;;0.78;100.00;100680.63;7392355;19;20419;-58
2022/11/20 10:24:36;;;;;;;7.40;4.47;;;;;;;1.07;100.00;100679.50;7395744;19;20363;-58
2022/11/20 10:27:10;;;;;;;11.03;5.03;;;;;;;0.78;100.00;100684.03;7392785;19;20414;-58
2022/11/20 10:29:42;;;;;;;5.90;3.90;;;;;;;0.62;100.00;100684.47;7390580;19;20919;-61
2022/11/20 10:32:16;;;;;;;8.53;4.40;;;;;;;0.55;100.00;100679.66;7389043;19;20419;-59
2022/11/20 10:34:51;;;;;;;8.77;5.03;;;;;;;0.70;100.00;100679.13;7390914;19;20410;-58
2022/11/20 10:37:25;;;;;;;10.73;5.67;;;;;;;0.58;100.00;100669.78;7389610;19;20370;-56
2022/11/20 10:40:00;;;;;;;7.10;4.40;;;;;;;0.52;100.00;100679.44;7394635;19;20378;-60
2022/11/20 10:42:34;;;;;;;10.40;5.40;;;;;;;0.49;100.00;100676.63;7386990;19;20442;-58
2022/11/20 10:45:14;;;;;;;5.57;3.57;;;;;;;0.46;100.00;100678.94;7395415;19;20385;-61
2022/11/20 10:47:43;;;;;;;61.53;22.33;;;;;;;0.66;100.00;100673.81;7388485;19;20407;-60
2022/11/20 10:50:17;;;;;;;8.03;4.80;;;;;;;0.75;100.00;100676.19;7394572;19;20394;-59
2022/11/20 10:52:59;;;;;;;5.87;4.20;;;;;;;0.93;100.00;100674.22;7388297;19;20398;-60
2022/11/20 10:55:34;;;;;;;6.87;4.30;;;;;;;0.86;100.00;100669.41;7394849;19;20897;-58
2022/11/20 10:58:07;;;;;;;7.80;4.43;;;;;;;0.62;100.00;100674.31;7390128;19;20702;-60
2022/11/20 11:00:37;;;;;;;5.67;3.53;;;;;;;0.60;100.00;100680.94;7393921;19;20415;-59
2022/11/20 11:03:23;;;;;;;6.77;4.60;;;;;;;0.64;100.00;100680.41;7391891;19;20467;-58
2022/11/20 11:05:54;;;;;;;8.77;4.57;;;;;;;0.64;100.00;100675.34;7394281;19;20398;-56
2022/11/20 11:08:29;;;;;;;6.10;4.10;;;;;;;0.63;100.00;100676.13;7390305;19;20944;-59
2022/11/20 11:11:01;;;;;;;8.93;4.53;;;;;;;0.52;100.00;100671.81;7388167;19;20377;-57
2022/11/20 11:13:32;;;;;;;5.83;3.77;;;;;;;0.46;100.00;100666.25;7392068;19;20415;-57
2022/11/20 11:16:02;;;;;;;9.63;4.70;;;;;;;0.58;100.00;100661.25;7389910;19;20402;-55
2022/11/20 11:18:36;;;;;;;6.43;3.80;;;;;;;0.59;100.00;100666.47;7393377;19;20398;-56
2022/11/20 11:21:07;;;;;;;7.20;3.93;;;;;;;0.61;100.00;100662.38;7389497;19;20378;-54
2022/11/20 11:23:40;;;;;;;5.77;3.80;;;;;;;0.73;100.00;100659.97;7391128;19;20435;-54
2022/11/20 11:26:21;;;;;;;7.10;4.43;;;;;;;0.76;100.00;100650.03;7388921;19;20761;-58
2022/11/20 11:28:56;;;;;;;6.37;3.80;;;;;;;0.94;100.00;100642.09;7393056;19;20391;-59
2022/11/20 11:31:27;;;;;;;6.17;3.77;;;;;;;0.96;100.00;100647.31;7389039;19;20422;-58
2022/11/20 11:34:07;;;;;;;20.77;8.40;;;;;;;0.89;100.00;100639.19;7392736;19;20371;-58
2022/11/20 11:36:37;;;;;;;6.70;3.93;;;;;;;0.97;100.00;100641.44;7382781;19;20427;-57
2022/11/20 11:39:18;;;;;;;4.80;3.33;;;;;;;0.97;100.00;100641.44;7393658;19;20378;-57
2022/11/20 11:41:49;;;;;;;30.60;14.70;;;;;;;1.46;100.00;100637.63;7388494;19;20447;-57
2022/11/20 11:47:06;;;;;;;36.07;16.80;;;;;;;1.66;100.00;100634.81;7390266;19;20462;-58
2022/11/20 11:49:35;;;;;;;7.90;4.00;;;;;;;1.47;100.00;100641.94;7392706;19;20367;-60